• Join FlightAware (Why Join?)
  • Login
  • US Flag 
11:12PM EDT


 

Airport Tracker/Info


-or-


 

Live Flight TrackerFlight Track Log ✈ THY1867 ✈ 04-May-2013 ✈ LTBA / IST - LIPZ / VCE

Flight Track Log - Related Links

Times and Time Zones

All times are in EDT time to prevent confusion due to time zone crossing. See the THY1867 flight status page for this flight to view local times or setup timezone preferences in your user account.

Time Position Orientation Groundspeed Altitude Reporting Facility
EDT Latitude Longitude Course Direction KTS MPH feet Rate Location/Type
02:20AM 42.7595 23.5608 296° West  Level Estimated
02:21AM 42.8031 23.4184 293° West  Level Estimated
02:22AM 42.8465 23.2758 293° West  Level Estimated
02:23AM 42.8898 23.1330 293° West  Level Estimated
02:24AM 42.9329 22.9901 292° West  Level Estimated
02:25AM 42.9757 22.8469 292° West  Level Estimated
02:26AM 43.0185 22.7035 292° West  Level Estimated
02:27AM 43.0610 22.5599 292° West  Level Estimated
02:28AM 43.1033 22.4161 292° West  Level Estimated
02:29AM 43.1455 22.2722 292° West  Level Estimated
02:30AM 43.1875 22.1280 292° West  Level Estimated
02:31AM 43.2293 21.9836 292° West  Level Estimated
02:32AM 43.2709 21.8391 292° West  Level Estimated
02:33AM 43.3124 21.6943 292° West  Level Estimated
02:34AM 43.3537 21.5493 291° West  Level Estimated
02:35AM 43.3947 21.4042 291° West  Level Estimated
02:36AM 43.4356 21.2588 291° West  Level Estimated
02:37AM 43.4763 21.1133 291° West  Level Estimated
02:38AM 43.5169 20.9675 291° West  Level Estimated
02:39AM 43.5572 20.8216 291° West  Level Estimated
02:40AM 43.5974 20.6754 291° West  Level Estimated
02:41AM 43.6373 20.5291 291° West  Level Estimated
02:42AM 43.6771 20.3826 291° West  Level Estimated
02:43AM 43.7167 20.2358 291° West  Level Estimated
02:44AM 43.7561 20.0889 290° West  Level Estimated
02:45AM 43.7954 19.9418 290° West  Level Estimated
02:46AM 43.8344 19.7945 290° West  Level Estimated
02:47AM 43.8732 19.6470 290° West  Level Estimated
02:48AM 43.9119 19.4993 290° West  Level Estimated
02:49AM 43.9503 19.3514 290° West  Level Estimated
02:50AM 43.9886 19.2034 290° West  Level Estimated
02:51AM 44.0267 19.0551 290° West  Level Estimated
02:52AM 44.0646 18.9067 290° West  Level Estimated
02:53AM 44.1023 18.7580 289° West  Level Estimated
02:54AM 44.1398 18.6092 289° West  Level Estimated
02:55AM 44.1771 18.4602 289° West  Level Estimated
02:56AM 44.2142 18.3110 289° West  Level Estimated
02:57AM 44.2511 18.1616 289° West  Level Estimated
02:58AM 44.2878 18.0120 289° West  Level Estimated
02:59AM 44.3244 17.8622 289° West  Level Estimated
03:00AM 44.3607 17.7123 289° West  Level Estimated
03:01AM 44.3969 17.5621 289° West  Level Estimated
03:02AM 44.4328 17.4118 289° West  Level Estimated
03:03AM 44.4685 17.2613 288° West  Level Estimated
03:04AM 44.5041 17.1106 288° West  Level Estimated
03:05AM 44.5394 16.9597 288° West  Level Estimated
03:06AM 44.5746 16.8087 288° West  Level Estimated
03:07AM 44.6095 16.6574 288° West  Level Estimated
03:08AM 44.6443 16.5060 288° West  Level Estimated
03:09AM 44.6788 16.3544 288° West  Level Estimated
03:10AM 44.7132 16.2026 288° West  Level Estimated
03:11AM 44.7473 16.0507 288° West  Level Estimated
03:12AM 44.7813 15.8985 287° West  Level Estimated
03:13AM 44.8150 15.7462 287° West  Level Estimated
03:14AM 44.8485 15.5937 287° West  Level Estimated
03:15AM 44.8819 15.4410 287° West  Level Estimated
03:16AM 44.9150 15.2882 287° West  Level Estimated
03:17AM 44.9479 15.1352 287° West  Level Estimated
03:18AM 44.9807 14.9820 287° West  Level Estimated
03:19AM 45.0132 14.8286 287° West  Level Estimated
03:20AM 45.0455 14.6750 287° West  Level Estimated
03:21AM 45.0776 14.5213 287° West  Level Estimated
03:22AM 45.1095 14.3674 286° West  Level Estimated
03:23AM 45.1412 14.2133 286° West  Level Estimated
03:24AM 45.1727 14.0591 286° West  Level Estimated
03:25AM 45.2040 13.9047 286° West  Level Estimated
03:26AM 45.2350 13.7501 286° West  Level Estimated
03:27AM 45.2659 13.5954 286° West  Level Estimated
03:28AM 45.2966 13.4404 286° West  Level Estimated
03:29AM 45.3270 13.2854 286° West  Level Estimated
03:30AM 45.3572 13.1301 286° West  Level Estimated
03:31AM 45.3872 12.9747 285° West  Level Estimated
03:32AM 45.4170 12.8191 285° West  Level Estimated
03:33AM 45.4467 12.6634 285° West  Level Estimated
03:34AM 45.4760 12.5075 285° West  Level Estimated
03:35AM 45.5051 12.3519 285° West  Level Estimated
03:36AM 45.5051 12.3519 46° Northeast  Level Estimated
03:37AM 45.5051 12.3519 46° Northeast  Level Estimated
03:38AM 45.5051 12.3519 46° Northeast  Level Estimated
03:39AM 45.5051 12.3519 46° Northeast  Level Estimated
03:40AM 45.5051 12.3519 46° Northeast  Level Estimated
03:41AM 45.5051 12.3519 46° Northeast  Level Estimated
03:42AM 45.5051 12.3519 46° Northeast  Level Estimated
03:43AM 45.5051 12.3519 46° Northeast  Level Estimated
03:44AM 45.5051 12.3519 46° Northeast  Level Estimated
03:45AM 45.5051 12.3519 46° Northeast  Level Estimated
03:46AM 45.5051 12.3519 46° Northeast  Level Estimated
03:47AM 45.5051 12.3519 46° Northeast  Level Estimated
03:48AM 45.5051 12.3519 46° Northeast  Level Estimated
03:49AM 45.5051 12.3519 46° Northeast  Level Estimated
03:50AM 45.5051 12.3519 46° Northeast  Level Estimated
03:51AM 45.5051 12.3519 46° Northeast  Level Estimated